sensor_id;sensor_type;location;lat;lon;timestamp;P1;durP1;ratioP1;P2;durP2;ratioP2
817;SDS011;391;51.052;6.954;2022-11-15T00:01:05;8.83;;;7.80;;
817;SDS011;391;51.052;6.954;2022-11-15T00:03:28;10.13;;;8.43;;
817;SDS011;391;51.052;6.954;2022-11-15T00:05:51;8.63;;;7.60;;
817;SDS011;391;51.052;6.954;2022-11-15T00:08:13;8.77;;;7.87;;
817;SDS011;391;51.052;6.954;2022-11-15T00:10:35;7.80;;;7.00;;
817;SDS011;391;51.052;6.954;2022-11-15T00:12:57;8.83;;;7.90;;
817;SDS011;391;51.052;6.954;2022-11-15T00:15:20;7.50;;;6.67;;
817;SDS011;391;51.052;6.954;2022-11-15T00:17:42;8.27;;;7.47;;
817;SDS011;391;51.052;6.954;2022-11-15T00:20:04;9.67;;;8.07;;
817;SDS011;391;51.052;6.954;2022-11-15T00:22:31;10.97;;;8.73;;
817;SDS011;391;51.052;6.954;2022-11-15T00:24:53;9.30;;;7.93;;
817;SDS011;391;51.052;6.954;2022-11-15T00:27:15;10.40;;;8.50;;
817;SDS011;391;51.052;6.954;2022-11-15T00:29:37;9.00;;;8.10;;
817;SDS011;391;51.052;6.954;2022-11-15T00:32:05;10.67;;;8.17;;
817;SDS011;391;51.052;6.954;2022-11-15T00:34:27;12.03;;;8.10;;
817;SDS011;391;51.052;6.954;2022-11-15T00:36:49;9.73;;;8.23;;
817;SDS011;391;51.052;6.954;2022-11-15T00:39:11;8.67;;;7.67;;
817;SDS011;391;51.052;6.954;2022-11-15T00:41:33;13.50;;;8.17;;
817;SDS011;391;51.052;6.954;2022-11-15T00:43:55;9.90;;;8.80;;
817;SDS011;391;51.052;6.954;2022-11-15T00:46:17;10.30;;;9.30;;
817;SDS011;391;51.052;6.954;2022-11-15T00:48:40;9.60;;;8.40;;
817;SDS011;391;51.052;6.954;2022-11-15T00:51:02;9.63;;;8.60;;
817;SDS011;391;51.052;6.954;2022-11-15T00:53:24;10.03;;;9.10;;
817;SDS011;391;51.052;6.954;2022-11-15T00:55:46;12.07;;;9.50;;
817;SDS011;391;51.052;6.954;2022-11-15T00:58:08;9.57;;;8.57;;
817;SDS011;391;51.052;6.954;2022-11-15T01:00:31;12.63;;;9.57;;
817;SDS011;391;51.052;6.954;2022-11-15T01:02:52;11.23;;;9.70;;
817;SDS011;391;51.052;6.954;2022-11-15T01:05:16;11.03;;;9.43;;
817;SDS011;391;51.052;6.954;2022-11-15T01:07:40;11.03;;;9.27;;
817;SDS011;391;51.052;6.954;2022-11-15T01:10:02;9.57;;;8.57;;
817;SDS011;391;51.052;6.954;2022-11-15T01:12:26;14.23;;;9.30;;
817;SDS011;391;51.052;6.954;2022-11-15T01:14:49;11.30;;;8.30;;
817;SDS011;391;51.052;6.954;2022-11-15T01:17:11;8.13;;;6.83;;
817;SDS011;391;51.052;6.954;2022-11-15T01:19:33;8.87;;;7.40;;
817;SDS011;391;51.052;6.954;2022-11-15T01:21:56;8.00;;;6.80;;
817;SDS011;391;51.052;6.954;2022-11-15T01:24:18;8.57;;;7.33;;
817;SDS011;391;51.052;6.954;2022-11-15T01:26:40;8.60;;;7.80;;
817;SDS011;391;51.052;6.954;2022-11-15T01:29:02;12.23;;;8.73;;
817;SDS011;391;51.052;6.954;2022-11-15T01:31:25;8.67;;;7.77;;
817;SDS011;391;51.052;6.954;2022-11-15T01:33:47;10.60;;;8.70;;
817;SDS011;391;51.052;6.954;2022-11-15T01:36:11;10.47;;;7.33;;
817;SDS011;391;51.052;6.954;2022-11-15T01:38:36;9.20;;;7.60;;
817;SDS011;391;51.052;6.954;2022-11-15T01:40:57;10.83;;;8.87;;
817;SDS011;391;51.052;6.954;2022-11-15T01:43:20;9.87;;;8.87;;
817;SDS011;391;51.052;6.954;2022-11-15T01:45:44;11.23;;;8.67;;
817;SDS011;391;51.052;6.954;2022-11-15T01:48:11;8.97;;;8.07;;
817;SDS011;391;51.052;6.954;2022-11-15T01:50:33;9.50;;;8.43;;
817;SDS011;391;51.052;6.954;2022-11-15T01:52:55;9.27;;;8.47;;
817;SDS011;391;51.052;6.954;2022-11-15T01:55:20;9.63;;;8.63;;
817;SDS011;391;51.052;6.954;2022-11-15T01:57:44;11.90;;;7.50;;
817;SDS011;391;51.052;6.954;2022-11-15T02:00:10;9.10;;;7.67;;
817;SDS011;391;51.052;6.954;2022-11-15T02:02:34;11.23;;;8.70;;
817;SDS011;391;51.052;6.954;2022-11-15T02:04:58;7.60;;;6.80;;
817;SDS011;391;51.052;6.954;2022-11-15T02:07:20;9.80;;;7.73;;
817;SDS011;391;51.052;6.954;2022-11-15T02:09:44;9.07;;;8.17;;
817;SDS011;391;51.052;6.954;2022-11-15T02:12:08;9.13;;;7.30;;
817;SDS011;391;51.052;6.954;2022-11-15T02:14:32;8.60;;;7.70;;
817;SDS011;391;51.052;6.954;2022-11-15T02:16:58;9.50;;;8.43;;
817;SDS011;391;51.052;6.954;2022-11-15T02:19:29;10.23;;;8.07;;
817;SDS011;391;51.052;6.954;2022-11-15T02:22:14;7.90;;;7.10;;
817;SDS011;391;51.052;6.954;2022-11-15T02:25:03;7.33;;;6.63;;
817;SDS011;391;51.052;6.954;2022-11-15T02:27:53;8.97;;;7.27;;
817;SDS011;391;51.052;6.954;2022-11-15T02:30:35;8.20;;;7.40;;
817;SDS011;391;51.052;6.954;2022-11-15T02:33:03;8.20;;;7.50;;
817;SDS011;391;51.052;6.954;2022-11-15T02:35:35;13.00;;;8.30;;
817;SDS011;391;51.052;6.954;2022-11-15T02:38:07;8.80;;;7.73;;
817;SDS011;391;51.052;6.954;2022-11-15T02:40:35;7.70;;;6.50;;
817;SDS011;391;51.052;6.954;2022-11-15T02:43:04;7.40;;;6.70;;
817;SDS011;391;51.052;6.954;2022-11-15T02:45:50;8.90;;;7.13;;
817;SDS011;391;51.052;6.954;2022-11-15T02:48:16;10.40;;;7.33;;
817;SDS011;391;51.052;6.954;2022-11-15T02:50:39;11.43;;;8.17;;
817;SDS011;391;51.052;6.954;2022-11-15T02:53:02;7.70;;;6.83;;
817;SDS011;391;51.052;6.954;2022-11-15T02:55:26;7.30;;;6.60;;
817;SDS011;391;51.052;6.954;2022-11-15T02:57:51;9.23;;;6.80;;
817;SDS011;391;51.052;6.954;2022-11-15T03:00:15;8.63;;;7.40;;
817;SDS011;391;51.052;6.954;2022-11-15T03:02:44;11.00;;;6.60;;
817;SDS011;391;51.052;6.954;2022-11-15T03:05:25;11.33;;;6.13;;
817;SDS011;391;51.052;6.954;2022-11-15T03:07:56;9.90;;;6.40;;
817;SDS011;391;51.052;6.954;2022-11-15T03:10:25;7.17;;;5.77;;
817;SDS011;391;51.052;6.954;2022-11-15T03:12:54;8.07;;;6.77;;
817;SDS011;391;51.052;6.954;2022-11-15T03:15:21;6.83;;;6.13;;
817;SDS011;391;51.052;6.954;2022-11-15T03:17:51;7.50;;;6.10;;
817;SDS011;391;51.052;6.954;2022-11-15T03:20:17;7.37;;;6.57;;
817;SDS011;391;51.052;6.954;2022-11-15T03:22:41;6.80;;;6.07;;
817;SDS011;391;51.052;6.954;2022-11-15T03:25:05;12.73;;;8.40;;
817;SDS011;391;51.052;6.954;2022-11-15T03:27:31;9.97;;;8.43;;
817;SDS011;391;51.052;6.954;2022-11-15T03:29:58;9.30;;;8.40;;
817;SDS011;391;51.052;6.954;2022-11-15T03:32:24;8.20;;;7.43;;
817;SDS011;391;51.052;6.954;2022-11-15T03:34:51;7.83;;;7.13;;
817;SDS011;391;51.052;6.954;2022-11-15T03:37:17;7.90;;;7.10;;
817;SDS011;391;51.052;6.954;2022-11-15T03:39:43;11.67;;;7.97;;
817;SDS011;391;51.052;6.954;2022-11-15T03:42:08;7.20;;;6.50;;
817;SDS011;391;51.052;6.954;2022-11-15T03:44:40;8.47;;;7.60;;
817;SDS011;391;51.052;6.954;2022-11-15T03:47:08;8.00;;;7.20;;
817;SDS011;391;51.052;6.954;2022-11-15T03:49:34;8.30;;;7.50;;
817;SDS011;391;51.052;6.954;2022-11-15T03:52:03;9.47;;;6.70;;
817;SDS011;391;51.052;6.954;2022-11-15T03:54:27;7.70;;;6.90;;
817;SDS011;391;51.052;6.954;2022-11-15T03:56:49;9.23;;;6.70;;
817;SDS011;391;51.052;6.954;2022-11-15T03:59:11;7.37;;;6.67;;
817;SDS011;391;51.052;6.954;2022-11-15T04:01:33;8.00;;;7.30;;
817;SDS011;391;51.052;6.954;2022-11-15T04:03:55;7.33;;;6.53;;
817;SDS011;391;51.052;6.954;2022-11-15T04:06:17;6.27;;;5.67;;
817;SDS011;391;51.052;6.954;2022-11-15T04:08:40;7.00;;;6.40;;
817;SDS011;391;51.052;6.954;2022-11-15T04:11:02;8.17;;;6.50;;
817;SDS011;391;51.052;6.954;2022-11-15T04:13:24;6.93;;;6.23;;
817;SDS011;391;51.052;6.954;2022-11-15T04:15:51;6.67;;;5.90;;
817;SDS011;391;51.052;6.954;2022-11-15T04:18:13;7.40;;;6.70;;
817;SDS011;391;51.052;6.954;2022-11-15T04:20:40;11.87;;;7.40;;
817;SDS011;391;51.052;6.954;2022-11-15T04:23:20;10.53;;;6.70;;
817;SDS011;391;51.052;6.954;2022-11-15T04:26:04;8.13;;;7.33;;
817;SDS011;391;51.052;6.954;2022-11-15T04:28:28;8.43;;;6.67;;
817;SDS011;391;51.052;6.954;2022-11-15T04:30:50;8.23;;;7.10;;
817;SDS011;391;51.052;6.954;2022-11-15T04:33:12;7.27;;;6.57;;
817;SDS011;391;51.052;6.954;2022-11-15T04:35:35;7.03;;;5.77;;
817;SDS011;391;51.052;6.954;2022-11-15T04:37:57;6.33;;;5.50;;
817;SDS011;391;51.052;6.954;2022-11-15T04:40:19;8.73;;;7.20;;
817;SDS011;391;51.052;6.954;2022-11-15T04:42:42;8.43;;;7.33;;
817;SDS011;391;51.052;6.954;2022-11-15T04:45:04;8.90;;;8.10;;
817;SDS011;391;51.052;6.954;2022-11-15T04:47:26;8.07;;;7.27;;
817;SDS011;391;51.052;6.954;2022-11-15T04:49:49;8.60;;;7.70;;
817;SDS011;391;51.052;6.954;2022-11-15T04:52:11;9.90;;;7.80;;
817;SDS011;391;51.052;6.954;2022-11-15T04:54:34;7.70;;;6.97;;
817;SDS011;391;51.052;6.954;2022-11-15T04:56:56;7.93;;;7.23;;
817;SDS011;391;51.052;6.954;2022-11-15T04:59:19;8.90;;;7.50;;
817;SDS011;391;51.052;6.954;2022-11-15T05:01:41;9.63;;;7.83;;
817;SDS011;391;51.052;6.954;2022-11-15T05:04:05;10.20;;;7.20;;
817;SDS011;391;51.052;6.954;2022-11-15T05:06:41;8.83;;;7.93;;
817;SDS011;391;51.052;6.954;2022-11-15T05:09:02;8.37;;;7.57;;
817;SDS011;391;51.052;6.954;2022-11-15T05:11:25;8.67;;;7.47;;
817;SDS011;391;51.052;6.954;2022-11-15T05:13:47;11.03;;;8.90;;
817;SDS011;391;51.052;6.954;2022-11-15T05:16:11;9.30;;;8.40;;
817;SDS011;391;51.052;6.954;2022-11-15T05:18:33;7.80;;;7.10;;
817;SDS011;391;51.052;6.954;2022-11-15T05:20:55;8.13;;;7.07;;
817;SDS011;391;51.052;6.954;2022-11-15T05:23:17;8.63;;;7.73;;
817;SDS011;391;51.052;6.954;2022-11-15T05:25:39;7.10;;;6.50;;
817;SDS011;391;51.052;6.954;2022-11-15T05:28:01;7.57;;;6.87;;
817;SDS011;391;51.052;6.954;2022-11-15T05:30:23;8.40;;;6.93;;
817;SDS011;391;51.052;6.954;2022-11-15T05:32:47;6.07;;;5.50;;
817;SDS011;391;51.052;6.954;2022-11-15T05:35:10;6.40;;;5.80;;
817;SDS011;391;51.052;6.954;2022-11-15T05:37:37;6.13;;;5.33;;
817;SDS011;391;51.052;6.954;2022-11-15T05:39:59;6.70;;;6.10;;
817;SDS011;391;51.052;6.954;2022-11-15T05:42:21;7.20;;;6.50;;
817;SDS011;391;51.052;6.954;2022-11-15T05:44:44;8.43;;;7.63;;
817;SDS011;391;51.052;6.954;2022-11-15T05:47:09;7.07;;;6.43;;
817;SDS011;391;51.052;6.954;2022-11-15T05:49:36;6.33;;;5.83;;
817;SDS011;391;51.052;6.954;2022-11-15T05:52:02;6.53;;;5.43;;
817;SDS011;391;51.052;6.954;2022-11-15T05:54:27;6.03;;;5.53;;
817;SDS011;391;51.052;6.954;2022-11-15T05:56:49;10.10;;;7.50;;
817;SDS011;391;51.052;6.954;2022-11-15T05:59:10;8.53;;;7.80;;
817;SDS011;391;51.052;6.954;2022-11-15T06:01:33;9.07;;;8.23;;
817;SDS011;391;51.052;6.954;2022-11-15T06:03:58;7.80;;;6.93;;
817;SDS011;391;51.052;6.954;2022-11-15T06:06:21;7.90;;;7.10;;
817;SDS011;391;51.052;6.954;2022-11-15T06:08:43;6.67;;;6.13;;
817;SDS011;391;51.052;6.954;2022-11-15T06:11:05;6.77;;;6.27;;
817;SDS011;391;51.052;6.954;2022-11-15T06:13:28;7.83;;;7.10;;
817;SDS011;391;51.052;6.954;2022-11-15T06:15:50;8.60;;;7.90;;
817;SDS011;391;51.052;6.954;2022-11-15T06:18:12;6.97;;;6.27;;
817;SDS011;391;51.052;6.954;2022-11-15T06:20:34;5.37;;;4.47;;
817;SDS011;391;51.052;6.954;2022-11-15T06:22:58;6.73;;;5.63;;
817;SDS011;391;51.052;6.954;2022-11-15T06:25:20;8.73;;;5.73;;
817;SDS011;391;51.052;6.954;2022-11-15T06:27:42;8.23;;;7.10;;
817;SDS011;391;51.052;6.954;2022-11-15T06:30:04;7.10;;;6.10;;
817;SDS011;391;51.052;6.954;2022-11-15T06:32:28;6.03;;;5.53;;
817;SDS011;391;51.052;6.954;2022-11-15T06:34:51;5.27;;;4.77;;
817;SDS011;391;51.052;6.954;2022-11-15T06:37:12;5.70;;;5.20;;
817;SDS011;391;51.052;6.954;2022-11-15T06:39:36;4.80;;;4.40;;
817;SDS011;391;51.052;6.954;2022-11-15T06:41:58;4.03;;;3.73;;
817;SDS011;391;51.052;6.954;2022-11-15T06:44:20;3.93;;;3.60;;
817;SDS011;391;51.052;6.954;2022-11-15T06:46:42;4.40;;;4.00;;
817;SDS011;391;51.052;6.954;2022-11-15T06:49:04;3.83;;;3.47;;
817;SDS011;391;51.052;6.954;2022-11-15T06:51:29;3.90;;;3.60;;
817;SDS011;391;51.052;6.954;2022-11-15T06:53:51;5.33;;;4.00;;
817;SDS011;391;51.052;6.954;2022-11-15T06:56:14;3.77;;;3.47;;
817;SDS011;391;51.052;6.954;2022-11-15T06:58:36;3.23;;;2.97;;
817;SDS011;391;51.052;6.954;2022-11-15T07:00:59;4.17;;;3.77;;
817;SDS011;391;51.052;6.954;2022-11-15T07:03:21;4.07;;;3.67;;
817;SDS011;391;51.052;6.954;2022-11-15T07:05:50;3.73;;;3.40;;
817;SDS011;391;51.052;6.954;2022-11-15T07:08:13;5.03;;;4.53;;
817;SDS011;391;51.052;6.954;2022-11-15T07:10:35;4.70;;;4.30;;
817;SDS011;391;51.052;6.954;2022-11-15T07:12:58;7.10;;;6.50;;
817;SDS011;391;51.052;6.954;2022-11-15T07:15:22;7.10;;;5.63;;
817;SDS011;391;51.052;6.954;2022-11-15T07:17:46;5.33;;;4.70;;
817;SDS011;391;51.052;6.954;2022-11-15T07:20:08;5.70;;;5.20;;
817;SDS011;391;51.052;6.954;2022-11-15T07:22:31;7.67;;;5.27;;
817;SDS011;391;51.052;6.954;2022-11-15T07:24:54;6.63;;;5.97;;
817;SDS011;391;51.052;6.954;2022-11-15T07:27:16;6.37;;;5.90;;
817;SDS011;391;51.052;6.954;2022-11-15T07:29:39;5.07;;;4.57;;
817;SDS011;391;51.052;6.954;2022-11-15T07:32:01;4.60;;;4.20;;
817;SDS011;391;51.052;6.954;2022-11-15T07:34:23;6.70;;;4.70;;
817;SDS011;391;51.052;6.954;2022-11-15T07:36:45;6.00;;;5.20;;
817;SDS011;391;51.052;6.954;2022-11-15T07:39:07;7.50;;;6.90;;
817;SDS011;391;51.052;6.954;2022-11-15T07:41:29;11.93;;;7.70;;
817;SDS011;391;51.052;6.954;2022-11-15T07:43:51;7.00;;;6.30;;
817;SDS011;391;51.052;6.954;2022-11-15T07:46:15;6.30;;;5.77;;
817;SDS011;391;51.052;6.954;2022-11-15T07:48:37;4.97;;;3.60;;
817;SDS011;391;51.052;6.954;2022-11-15T07:51:04;4.90;;;4.47;;
817;SDS011;391;51.052;6.954;2022-11-15T07:53:33;6.97;;;4.50;;
817;SDS011;391;51.052;6.954;2022-11-15T07:55:54;4.90;;;4.50;;
817;SDS011;391;51.052;6.954;2022-11-15T07:58:16;4.47;;;4.07;;
817;SDS011;391;51.052;6.954;2022-11-15T08:00:38;5.20;;;3.93;;
817;SDS011;391;51.052;6.954;2022-11-15T08:03:02;5.03;;;4.63;;
817;SDS011;391;51.052;6.954;2022-11-15T08:05:25;5.00;;;3.80;;
817;SDS011;391;51.052;6.954;2022-11-15T08:07:47;3.87;;;3.47;;
817;SDS011;391;51.052;6.954;2022-11-15T08:10:12;4.80;;;3.63;;
817;SDS011;391;51.052;6.954;2022-11-15T08:12:37;3.50;;;3.30;;
817;SDS011;391;51.052;6.954;2022-11-15T08:14:59;3.17;;;2.90;;
817;SDS011;391;51.052;6.954;2022-11-15T08:17:21;6.77;;;3.80;;
817;SDS011;391;51.052;6.954;2022-11-15T08:19:44;3.27;;;2.97;;
817;SDS011;391;51.052;6.954;2022-11-15T08:22:06;3.83;;;3.17;;
817;SDS011;391;51.052;6.954;2022-11-15T08:24:28;4.00;;;3.30;;
817;SDS011;391;51.052;6.954;2022-11-15T08:26:50;4.53;;;4.10;;
817;SDS011;391;51.052;6.954;2022-11-15T08:29:12;3.80;;;3.50;;
817;SDS011;391;51.052;6.954;2022-11-15T08:31:35;3.57;;;3.27;;
817;SDS011;391;51.052;6.954;2022-11-15T08:33:57;4.17;;;3.37;;
817;SDS011;391;51.052;6.954;2022-11-15T08:36:21;2.73;;;2.53;;
817;SDS011;391;51.052;6.954;2022-11-15T08:38:43;3.63;;;2.73;;
817;SDS011;391;51.052;6.954;2022-11-15T08:41:05;4.10;;;3.30;;
817;SDS011;391;51.052;6.954;2022-11-15T08:43:27;4.00;;;3.70;;
817;SDS011;391;51.052;6.954;2022-11-15T08:45:50;4.23;;;2.60;;
817;SDS011;391;51.052;6.954;2022-11-15T08:48:12;2.97;;;2.70;;
817;SDS011;391;51.052;6.954;2022-11-15T08:50:34;2.53;;;2.20;;
817;SDS011;391;51.052;6.954;2022-11-15T08:52:57;2.23;;;2.03;;
817;SDS011;391;51.052;6.954;2022-11-15T08:55:25;2.17;;;1.70;;
817;SDS011;391;51.052;6.954;2022-11-15T08:57:47;2.70;;;2.20;;
817;SDS011;391;51.052;6.954;2022-11-15T09:00:10;4.87;;;2.17;;
817;SDS011;391;51.052;6.954;2022-11-15T09:02:33;3.67;;;2.30;;
817;SDS011;391;51.052;6.954;2022-11-15T09:04:55;3.23;;;2.20;;
817;SDS011;391;51.052;6.954;2022-11-15T09:07:17;2.53;;;2.00;;
817;SDS011;391;51.052;6.954;2022-11-15T09:09:40;3.30;;;2.17;;
817;SDS011;391;51.052;6.954;2022-11-15T09:12:03;2.40;;;1.70;;
817;SDS011;391;51.052;6.954;2022-11-15T09:14:25;2.83;;;1.57;;
817;SDS011;391;51.052;6.954;2022-11-15T09:16:47;2.70;;;1.63;;
817;SDS011;391;51.052;6.954;2022-11-15T09:19:09;5.80;;;1.73;;
817;SDS011;391;51.052;6.954;2022-11-15T09:21:31;2.00;;;1.80;;
817;SDS011;391;51.052;6.954;2022-11-15T09:23:53;1.50;;;1.40;;
817;SDS011;391;51.052;6.954;2022-11-15T09:26:17;2.07;;;1.27;;
817;SDS011;391;51.052;6.954;2022-11-15T09:28:39;1.87;;;1.33;;
817;SDS011;391;51.052;6.954;2022-11-15T09:31:03;2.33;;;1.67;;
817;SDS011;391;51.052;6.954;2022-11-15T09:33:26;2.60;;;1.53;;
817;SDS011;391;51.052;6.954;2022-11-15T09:35:50;3.03;;;1.40;;
817;SDS011;391;51.052;6.954;2022-11-15T09:38:12;1.40;;;1.20;;
817;SDS011;391;51.052;6.954;2022-11-15T09:40:35;2.20;;;1.80;;
817;SDS011;391;51.052;6.954;2022-11-15T09:43:03;1.90;;;1.37;;
817;SDS011;391;51.052;6.954;2022-11-15T09:45:34;2.50;;;1.60;;
817;SDS011;391;51.052;6.954;2022-11-15T09:48:32;2.33;;;1.50;;
817;SDS011;391;51.052;6.954;2022-11-15T09:51:12;1.60;;;1.50;;
817;SDS011;391;51.052;6.954;2022-11-15T09:53:24;2.60;;;1.23;;
817;SDS011;391;51.052;6.954;2022-11-15T09:55:50;3.23;;;2.30;;
817;SDS011;391;51.052;6.954;2022-11-15T09:58:07;2.10;;;1.73;;
817;SDS011;391;51.052;6.954;2022-11-15T10:00:19;4.17;;;1.37;;
817;SDS011;391;51.052;6.954;2022-11-15T10:03:03;3.20;;;2.00;;
817;SDS011;391;51.052;6.954;2022-11-15T10:05:13;3.40;;;1.80;;
817;SDS011;391;51.052;6.954;2022-11-15T10:07:21;1.47;;;1.30;;
817;SDS011;391;51.052;6.954;2022-11-15T10:09:31;1.53;;;1.00;;
817;SDS011;391;51.052;6.954;2022-11-15T10:11:43;2.87;;;1.20;;
817;SDS011;391;51.052;6.954;2022-11-15T10:13:48;1.20;;;1.00;;
817;SDS011;391;51.052;6.954;2022-11-15T10:15:54;2.60;;;1.27;;
817;SDS011;391;51.052;6.954;2022-11-15T10:18:09;1.40;;;1.23;;
817;SDS011;391;51.052;6.954;2022-11-15T10:20:20;1.70;;;1.20;;
817;SDS011;391;51.052;6.954;2022-11-15T10:22:27;1.50;;;1.20;;
817;SDS011;391;51.052;6.954;2022-11-15T10:24:33;1.63;;;1.10;;
817;SDS011;391;51.052;6.954;2022-11-15T10:26:44;5.00;;;1.20;;
817;SDS011;391;51.052;6.954;2022-11-15T10:28:51;3.03;;;0.90;;
817;SDS011;391;51.052;6.954;2022-11-15T10:30:55;2.67;;;1.17;;
817;SDS011;391;51.052;6.954;2022-11-15T10:35:22;1.57;;;1.23;;
817;SDS011;391;51.052;6.954;2022-11-15T10:37:27;1.70;;;1.23;;
817;SDS011;391;51.052;6.954;2022-11-15T10:39:32;2.27;;;1.10;;
817;SDS011;391;51.052;6.954;2022-11-15T10:41:37;2.23;;;1.40;;
817;SDS011;391;51.052;6.954;2022-11-15T10:43:42;2.10;;;1.23;;
817;SDS011;391;51.052;6.954;2022-11-15T10:45:47;1.67;;;1.10;;
817;SDS011;391;51.052;6.954;2022-11-15T10:47:52;1.10;;;1.00;;
817;SDS011;391;51.052;6.954;2022-11-15T10:49:56;1.93;;;0.87;;
817;SDS011;391;51.052;6.954;2022-11-15T10:52:02;1.13;;;0.93;;
817;SDS011;391;51.052;6.954;2022-11-15T10:54:18;1.83;;;1.10;;
817;SDS011;391;51.052;6.954;2022-11-15T10:56:27;3.10;;;1.00;;
817;SDS011;391;51.052;6.954;2022-11-15T10:58:32;1.60;;;1.23;;
817;SDS011;391;51.052;6.954;2022-11-15T11:00:38;1.73;;;0.90;;
817;SDS011;391;51.052;6.954;2022-11-15T11:02:45;1.20;;;1.00;;
817;SDS011;391;51.052;6.954;2022-11-15T11:05:01;3.27;;;1.70;;
817;SDS011;391;51.052;6.954;2022-11-15T11:07:08;1.50;;;0.83;;
817;SDS011;391;51.052;6.954;2022-11-15T11:09:31;1.10;;;0.80;;
817;SDS011;391;51.052;6.954;2022-11-15T11:11:43;2.70;;;1.20;;
817;SDS011;391;51.052;6.954;2022-11-15T11:13:48;3.57;;;0.93;;
817;SDS011;391;51.052;6.954;2022-11-15T11:15:53;3.00;;;1.23;;
817;SDS011;391;51.052;6.954;2022-11-15T11:18:04;1.40;;;0.97;;
817;SDS011;391;51.052;6.954;2022-11-15T11:20:18;1.40;;;1.07;;
817;SDS011;391;51.052;6.954;2022-11-15T11:22:30;2.27;;;1.00;;
817;SDS011;391;51.052;6.954;2022-11-15T11:24:41;1.40;;;0.80;;
817;SDS011;391;51.052;6.954;2022-11-15T11:26:55;1.10;;;0.70;;
817;SDS011;391;51.052;6.954;2022-11-15T11:29:13;1.30;;;0.90;;
817;SDS011;391;51.052;6.954;2022-11-15T11:31:31;2.80;;;1.00;;
817;SDS011;391;51.052;6.954;2022-11-15T11:33:47;1.67;;;1.30;;
817;SDS011;391;51.052;6.954;2022-11-15T11:36:00;3.60;;;0.87;;
817;SDS011;391;51.052;6.954;2022-11-15T11:38:15;2.83;;;1.03;;
817;SDS011;391;51.052;6.954;2022-11-15T11:40:28;2.73;;;1.17;;
817;SDS011;391;51.052;6.954;2022-11-15T11:42:35;2.73;;;0.97;;
817;SDS011;391;51.052;6.954;2022-11-15T11:44:49;2.93;;;1.00;;
817;SDS011;391;51.052;6.954;2022-11-15T11:47:03;1.40;;;0.90;;
817;SDS011;391;51.052;6.954;2022-11-15T11:49:15;1.63;;;0.70;;
817;SDS011;391;51.052;6.954;2022-11-15T11:51:23;1.50;;;1.00;;
817;SDS011;391;51.052;6.954;2022-11-15T11:53:31;1.90;;;0.70;;
817;SDS011;391;51.052;6.954;2022-11-15T11:55:42;1.20;;;0.80;;
817;SDS011;391;51.052;6.954;2022-11-15T11:57:50;1.80;;;1.00;;
817;SDS011;391;51.052;6.954;2022-11-15T12:00:01;2.97;;;1.00;;
817;SDS011;391;51.052;6.954;2022-11-15T12:02:16;1.10;;;0.87;;
817;SDS011;391;51.052;6.954;2022-11-15T12:04:26;3.00;;;1.10;;
817;SDS011;391;51.052;6.954;2022-11-15T12:06:35;2.53;;;0.90;;
817;SDS011;391;51.052;6.954;2022-11-15T12:08:44;1.30;;;0.80;;
817;SDS011;391;51.052;6.954;2022-11-15T12:10:51;1.00;;;0.80;;
817;SDS011;391;51.052;6.954;2022-11-15T12:13:02;1.40;;;0.70;;
817;SDS011;391;51.052;6.954;2022-11-15T12:15:11;6.30;;;1.20;;
817;SDS011;391;51.052;6.954;2022-11-15T12:17:19;1.93;;;1.00;;
817;SDS011;391;51.052;6.954;2022-11-15T12:19:28;2.50;;;0.87;;
817;SDS011;391;51.052;6.954;2022-11-15T12:21:34;1.27;;;0.73;;
817;SDS011;391;51.052;6.954;2022-11-15T12:23:44;3.37;;;1.30;;
817;SDS011;391;51.052;6.954;2022-11-15T12:25:52;2.57;;;2.27;;
817;SDS011;391;51.052;6.954;2022-11-15T12:28:00;2.60;;;0.70;;
817;SDS011;391;51.052;6.954;2022-11-15T12:30:11;1.10;;;0.80;;
817;SDS011;391;51.052;6.954;2022-11-15T12:32:26;3.30;;;1.10;;
817;SDS011;391;51.052;6.954;2022-11-15T12:34:36;2.17;;;1.00;;
817;SDS011;391;51.052;6.954;2022-11-15T12:36:44;1.20;;;1.07;;
817;SDS011;391;51.052;6.954;2022-11-15T12:38:55;1.77;;;0.80;;
817;SDS011;391;51.052;6.954;2022-11-15T12:41:13;4.20;;;1.00;;
817;SDS011;391;51.052;6.954;2022-11-15T12:45:46;2.00;;;0.90;;
817;SDS011;391;51.052;6.954;2022-11-15T12:47:50;1.10;;;0.80;;
817;SDS011;391;51.052;6.954;2022-11-15T12:49:54;3.67;;;1.00;;
817;SDS011;391;51.052;6.954;2022-11-15T12:52:07;1.93;;;0.90;;
817;SDS011;391;51.052;6.954;2022-11-15T13:01:56;2.73;;;1.10;;
817;SDS011;391;51.052;6.954;2022-11-15T13:04:08;2.33;;;1.70;;
817;SDS011;391;51.052;6.954;2022-11-15T13:08:43;1.40;;;1.00;;
817;SDS011;391;51.052;6.954;2022-11-15T13:10:50;2.40;;;1.40;;
817;SDS011;391;51.052;6.954;2022-11-15T13:12:54;4.37;;;1.10;;
817;SDS011;391;51.052;6.954;2022-11-15T13:15:00;1.37;;;0.87;;
817;SDS011;391;51.052;6.954;2022-11-15T13:17:09;3.73;;;1.00;;
817;SDS011;391;51.052;6.954;2022-11-15T13:19:35;2.53;;;1.60;;
817;SDS011;391;51.052;6.954;2022-11-15T13:21:47;3.37;;;1.00;;
817;SDS011;391;51.052;6.954;2022-11-15T13:24:13;1.93;;;1.00;;
817;SDS011;391;51.052;6.954;2022-11-15T13:26:18;3.40;;;1.40;;
817;SDS011;391;51.052;6.954;2022-11-15T13:28:26;2.40;;;1.70;;
817;SDS011;391;51.052;6.954;2022-11-15T13:30:35;3.73;;;1.30;;
817;SDS011;391;51.052;6.954;2022-11-15T13:32:40;5.50;;;1.90;;
817;SDS011;391;51.052;6.954;2022-11-15T13:34:43;1.70;;;1.30;;
817;SDS011;391;51.052;6.954;2022-11-15T13:36:55;3.70;;;1.17;;
817;SDS011;391;51.052;6.954;2022-11-15T13:38:59;1.97;;;1.70;;
817;SDS011;391;51.052;6.954;2022-11-15T13:41:11;7.30;;;1.70;;
817;SDS011;391;51.052;6.954;2022-11-15T13:43:26;7.83;;;3.30;;
817;SDS011;391;51.052;6.954;2022-11-15T13:45:32;2.43;;;1.27;;
817;SDS011;391;51.052;6.954;2022-11-15T13:47:35;2.20;;;1.67;;
817;SDS011;391;51.052;6.954;2022-11-15T13:49:39;2.60;;;1.47;;
817;SDS011;391;51.052;6.954;2022-11-15T13:51:44;2.10;;;1.30;;
817;SDS011;391;51.052;6.954;2022-11-15T13:53:52;3.03;;;1.10;;
817;SDS011;391;51.052;6.954;2022-11-15T13:55:59;2.00;;;1.50;;
817;SDS011;391;51.052;6.954;2022-11-15T13:58:03;2.10;;;1.50;;
817;SDS011;391;51.052;6.954;2022-11-15T14:00:25;3.70;;;2.20;;
817;SDS011;391;51.052;6.954;2022-11-15T14:02:33;4.70;;;2.70;;
817;SDS011;391;51.052;6.954;2022-11-15T14:04:38;2.53;;;1.80;;
817;SDS011;391;51.052;6.954;2022-11-15T14:06:48;3.93;;;2.03;;
817;SDS011;391;51.052;6.954;2022-11-15T14:09:15;4.83;;;1.70;;
817;SDS011;391;51.052;6.954;2022-11-15T14:11:31;2.03;;;1.77;;
817;SDS011;391;51.052;6.954;2022-11-15T14:13:35;1.80;;;1.40;;
817;SDS011;391;51.052;6.954;2022-11-15T14:15:38;4.60;;;2.03;;
817;SDS011;391;51.052;6.954;2022-11-15T14:17:42;4.33;;;2.73;;
817;SDS011;391;51.052;6.954;2022-11-15T14:19:51;3.63;;;2.00;;
817;SDS011;391;51.052;6.954;2022-11-15T14:22:07;3.50;;;2.23;;
817;SDS011;391;51.052;6.954;2022-11-15T14:24:16;3.30;;;2.27;;
817;SDS011;391;51.052;6.954;2022-11-15T14:26:28;2.73;;;2.30;;
817;SDS011;391;51.052;6.954;2022-11-15T14:28:33;4.67;;;2.63;;
817;SDS011;391;51.052;6.954;2022-11-15T14:30:41;3.57;;;1.83;;
817;SDS011;391;51.052;6.954;2022-11-15T14:32:48;4.17;;;2.03;;
817;SDS011;391;51.052;6.954;2022-11-15T14:34:54;4.80;;;2.80;;
817;SDS011;391;51.052;6.954;2022-11-15T14:36:58;8.73;;;2.60;;
817;SDS011;391;51.052;6.954;2022-11-15T14:39:02;2.13;;;1.77;;
817;SDS011;391;51.052;6.954;2022-11-15T14:41:10;1.93;;;1.83;;
817;SDS011;391;51.052;6.954;2022-11-15T14:43:21;2.20;;;1.70;;
817;SDS011;391;51.052;6.954;2022-11-15T14:45:26;1.83;;;1.70;;
817;SDS011;391;51.052;6.954;2022-11-15T14:47:30;2.10;;;1.60;;
817;SDS011;391;51.052;6.954;2022-11-15T14:49:33;7.33;;;1.73;;
817;SDS011;391;51.052;6.954;2022-11-15T14:51:36;5.50;;;2.00;;
817;SDS011;391;51.052;6.954;2022-11-15T14:53:40;2.43;;;2.23;;
817;SDS011;391;51.052;6.954;2022-11-15T14:55:44;2.53;;;1.87;;
817;SDS011;391;51.052;6.954;2022-11-15T14:57:49;2.30;;;1.63;;
817;SDS011;391;51.052;6.954;2022-11-15T14:59:52;1.80;;;1.70;;
817;SDS011;391;51.052;6.954;2022-11-15T15:01:56;1.90;;;1.80;;
817;SDS011;391;51.052;6.954;2022-11-15T15:04:00;3.37;;;1.93;;
817;SDS011;391;51.052;6.954;2022-11-15T15:06:04;2.67;;;1.80;;